sensor_id;sensor_type;location;lat;lon;timestamp;temperature;humidity
16517;DHT22;8371;52.272;9.746;2024-02-14T00:01:11;9.10;78.60
16517;DHT22;8371;52.272;9.746;2024-02-14T00:03:38;9.10;78.70
16517;DHT22;8371;52.272;9.746;2024-02-14T00:06:05;9.10;78.70
16517;DHT22;8371;52.272;9.746;2024-02-14T00:08:31;9.10;78.70
16517;DHT22;8371;52.272;9.746;2024-02-14T00:10:57;9.10;78.80
16517;DHT22;8371;52.272;9.746;2024-02-14T00:13:23;9.10;78.80
16517;DHT22;8371;52.272;9.746;2024-02-14T00:15:48;9.10;78.80
16517;DHT22;8371;52.272;9.746;2024-02-14T00:18:14;9.10;78.80
16517;DHT22;8371;52.272;9.746;2024-02-14T00:20:44;9.20;78.90
16517;DHT22;8371;52.272;9.746;2024-02-14T00:23:10;9.20;78.80
16517;DHT22;8371;52.272;9.746;2024-02-14T00:25:37;9.20;78.90
16517;DHT22;8371;52.272;9.746;2024-02-14T00:28:03;9.20;78.90
16517;DHT22;8371;52.272;9.746;2024-02-14T00:30:29;9.20;78.90
16517;DHT22;8371;52.272;9.746;2024-02-14T00:32:55;9.20;78.90
16517;DHT22;8371;52.272;9.746;2024-02-14T00:35:21;9.20;78.90
16517;DHT22;8371;52.272;9.746;2024-02-14T00:37:47;9.20;78.90
16517;DHT22;8371;52.272;9.746;2024-02-14T00:40:13;9.20;78.90
16517;DHT22;8371;52.272;9.746;2024-02-14T00:42:39;9.20;78.90
16517;DHT22;8371;52.272;9.746;2024-02-14T00:45:06;9.20;78.90
16517;DHT22;8371;52.272;9.746;2024-02-14T00:47:34;9.20;78.90
16517;DHT22;8371;52.272;9.746;2024-02-14T00:50:01;9.20;78.90
16517;DHT22;8371;52.272;9.746;2024-02-14T00:52:27;9.20;79.00
16517;DHT22;8371;52.272;9.746;2024-02-14T00:54:52;9.30;79.20
16517;DHT22;8371;52.272;9.746;2024-02-14T00:57:18;9.10;78.70
16517;DHT22;8371;52.272;9.746;2024-02-14T00:59:44;9.10;79.50
16517;DHT22;8371;52.272;9.746;2024-02-14T01:02:10;9.10;78.70
16517;DHT22;8371;52.272;9.746;2024-02-14T01:04:36;9.10;78.70
16517;DHT22;8371;52.272;9.746;2024-02-14T01:07:03;9.00;78.60
16517;DHT22;8371;52.272;9.746;2024-02-14T01:09:31;9.00;78.70
16517;DHT22;8371;52.272;9.746;2024-02-14T01:11:59;9.00;78.80
16517;DHT22;8371;52.272;9.746;2024-02-14T01:14:25;8.90;78.90
16517;DHT22;8371;52.272;9.746;2024-02-14T01:16:50;8.90;79.00
16517;DHT22;8371;52.272;9.746;2024-02-14T01:19:16;8.90;79.10
16517;DHT22;8371;52.272;9.746;2024-02-14T01:21:44;8.80;79.30
16517;DHT22;8371;52.272;9.746;2024-02-14T01:24:12;8.80;79.40
16517;DHT22;8371;52.272;9.746;2024-02-14T01:26:37;8.80;79.50
16517;DHT22;8371;52.272;9.746;2024-02-14T01:29:03;8.80;79.50
16517;DHT22;8371;52.272;9.746;2024-02-14T01:31:31;8.80;79.60
16517;DHT22;8371;52.272;9.746;2024-02-14T01:33:57;8.90;79.60
16517;DHT22;8371;52.272;9.746;2024-02-14T01:36:24;8.90;79.70
16517;DHT22;8371;52.272;9.746;2024-02-14T01:38:50;8.90;79.60
16517;DHT22;8371;52.272;9.746;2024-02-14T01:41:16;9.00;79.70
16517;DHT22;8371;52.272;9.746;2024-02-14T01:43:44;8.90;79.60
16517;DHT22;8371;52.272;9.746;2024-02-14T01:46:10;9.00;79.70
16517;DHT22;8371;52.272;9.746;2024-02-14T01:48:37;9.00;79.70
16517;DHT22;8371;52.272;9.746;2024-02-14T01:51:05;9.00;79.70
16517;DHT22;8371;52.272;9.746;2024-02-14T01:53:33;9.10;79.70
16517;DHT22;8371;52.272;9.746;2024-02-14T01:55:59;9.10;79.70
16517;DHT22;8371;52.272;9.746;2024-02-14T01:58:26;9.10;79.70
16517;DHT22;8371;52.272;9.746;2024-02-14T02:00:52;9.10;79.60
16517;DHT22;8371;52.272;9.746;2024-02-14T02:03:27;9.20;79.70
16517;DHT22;8371;52.272;9.746;2024-02-14T02:05:52;9.30;79.70
16517;DHT22;8371;52.272;9.746;2024-02-14T02:08:19;9.20;79.60
16517;DHT22;8371;52.272;9.746;2024-02-14T02:10:45;9.20;79.60
16517;DHT22;8371;52.272;9.746;2024-02-14T02:13:11;9.30;79.60
16517;DHT22;8371;52.272;9.746;2024-02-14T02:15:37;9.30;79.60
16517;DHT22;8371;52.272;9.746;2024-02-14T02:18:03;9.30;79.70
16517;DHT22;8371;52.272;9.746;2024-02-14T02:20:32;9.30;79.60
16517;DHT22;8371;52.272;9.746;2024-02-14T02:22:58;9.30;79.60
16517;DHT22;8371;52.272;9.746;2024-02-14T02:25:24;9.40;79.70
16517;DHT22;8371;52.272;9.746;2024-02-14T02:27:53;9.40;79.70
16517;DHT22;8371;52.272;9.746;2024-02-14T02:30:21;9.40;79.70
16517;DHT22;8371;52.272;9.746;2024-02-14T02:32:46;9.40;79.70
16517;DHT22;8371;52.272;9.746;2024-02-14T02:35:12;9.40;79.70
16517;DHT22;8371;52.272;9.746;2024-02-14T02:37:38;9.50;80.50
16517;DHT22;8371;52.272;9.746;2024-02-14T02:40:05;9.50;79.80
16517;DHT22;8371;52.272;9.746;2024-02-14T02:42:32;9.50;79.80
16517;DHT22;8371;52.272;9.746;2024-02-14T02:44:58;9.50;79.80
16517;DHT22;8371;52.272;9.746;2024-02-14T02:47:24;9.50;79.80
16517;DHT22;8371;52.272;9.746;2024-02-14T02:49:49;9.50;79.80
16517;DHT22;8371;52.272;9.746;2024-02-14T02:52:16;9.60;79.90
16517;DHT22;8371;52.272;9.746;2024-02-14T02:54:42;9.50;79.80
16517;DHT22;8371;52.272;9.746;2024-02-14T02:57:10;9.50;79.90
16517;DHT22;8371;52.272;9.746;2024-02-14T02:59:36;9.60;80.00
16517;DHT22;8371;52.272;9.746;2024-02-14T03:02:02;9.60;80.10
16517;DHT22;8371;52.272;9.746;2024-02-14T03:04:30;9.60;80.00
16517;DHT22;8371;52.272;9.746;2024-02-14T03:06:58;9.60;80.00
16517;DHT22;8371;52.272;9.746;2024-02-14T03:09:24;9.60;80.20
16517;DHT22;8371;52.272;9.746;2024-02-14T03:11:51;9.60;80.10
16517;DHT22;8371;52.272;9.746;2024-02-14T03:14:17;9.60;80.10
16517;DHT22;8371;52.272;9.746;2024-02-14T03:16:43;9.60;80.20
16517;DHT22;8371;52.272;9.746;2024-02-14T03:19:08;9.70;80.20
16517;DHT22;8371;52.272;9.746;2024-02-14T03:21:34;9.60;80.20
16517;DHT22;8371;52.272;9.746;2024-02-14T03:24:04;9.60;81.10
16517;DHT22;8371;52.272;9.746;2024-02-14T03:26:33;9.60;80.30
16517;DHT22;8371;52.272;9.746;2024-02-14T03:29:00;9.60;80.30
16517;DHT22;8371;52.272;9.746;2024-02-14T03:31:26;9.60;80.30
16517;DHT22;8371;52.272;9.746;2024-02-14T03:33:52;9.60;80.50
16517;DHT22;8371;52.272;9.746;2024-02-14T03:36:19;9.70;80.50
16517;DHT22;8371;52.272;9.746;2024-02-14T03:38:45;9.70;80.50
16517;DHT22;8371;52.272;9.746;2024-02-14T03:41:12;9.70;80.70
16517;DHT22;8371;52.272;9.746;2024-02-14T03:43:38;9.70;80.70
16517;DHT22;8371;52.272;9.746;2024-02-14T03:46:04;9.70;80.60
16517;DHT22;8371;52.272;9.746;2024-02-14T03:48:31;9.70;80.60
16517;DHT22;8371;52.272;9.746;2024-02-14T03:50:57;9.80;80.70
16517;DHT22;8371;52.272;9.746;2024-02-14T03:53:23;9.80;80.70
16517;DHT22;8371;52.272;9.746;2024-02-14T03:55:49;9.80;80.70
16517;DHT22;8371;52.272;9.746;2024-02-14T03:58:15;9.80;80.70
16517;DHT22;8371;52.272;9.746;2024-02-14T04:00:42;9.80;80.60
16517;DHT22;8371;52.272;9.746;2024-02-14T04:03:12;9.80;80.60
16517;DHT22;8371;52.272;9.746;2024-02-14T04:05:38;9.90;80.70
16517;DHT22;8371;52.272;9.746;2024-02-14T04:08:05;9.90;80.70
16517;DHT22;8371;52.272;9.746;2024-02-14T04:10:32;9.90;80.70
16517;DHT22;8371;52.272;9.746;2024-02-14T04:12:58;9.90;80.70
16517;DHT22;8371;52.272;9.746;2024-02-14T04:15:24;9.90;80.80
16517;DHT22;8371;52.272;9.746;2024-02-14T04:17:49;9.90;80.90
16517;DHT22;8371;52.272;9.746;2024-02-14T04:20:16;10.00;81.20
16517;DHT22;8371;52.272;9.746;2024-02-14T04:22:41;10.00;81.10
16517;DHT22;8371;52.272;9.746;2024-02-14T04:25:09;10.00;81.20
16517;DHT22;8371;52.272;9.746;2024-02-14T04:27:34;10.00;81.30
16517;DHT22;8371;52.272;9.746;2024-02-14T04:30:01;10.10;81.40
16517;DHT22;8371;52.272;9.746;2024-02-14T04:32:27;10.10;81.40
16517;DHT22;8371;52.272;9.746;2024-02-14T04:34:53;10.10;81.40
16517;DHT22;8371;52.272;9.746;2024-02-14T04:37:19;10.10;81.40
16517;DHT22;8371;52.272;9.746;2024-02-14T04:39:45;10.10;81.50
16517;DHT22;8371;52.272;9.746;2024-02-14T04:42:10;10.10;81.50
16517;DHT22;8371;52.272;9.746;2024-02-14T04:44:36;10.20;81.50
16517;DHT22;8371;52.272;9.746;2024-02-14T04:47:02;10.20;81.60
16517;DHT22;8371;52.272;9.746;2024-02-14T04:49:28;10.20;81.60
16517;DHT22;8371;52.272;9.746;2024-02-14T04:51:57;10.20;81.70
16517;DHT22;8371;52.272;9.746;2024-02-14T04:54:22;10.20;81.80
16517;DHT22;8371;52.272;9.746;2024-02-14T04:56:48;10.20;81.80
16517;DHT22;8371;52.272;9.746;2024-02-14T04:59:14;10.20;81.90
16517;DHT22;8371;52.272;9.746;2024-02-14T05:01:40;10.20;82.00
16517;DHT22;8371;52.272;9.746;2024-02-14T05:04:06;10.20;82.00
16517;DHT22;8371;52.272;9.746;2024-02-14T05:06:32;10.20;82.00
16517;DHT22;8371;52.272;9.746;2024-02-14T05:08:58;10.20;82.10
16517;DHT22;8371;52.272;9.746;2024-02-14T05:11:24;10.20;82.20
16517;DHT22;8371;52.272;9.746;2024-02-14T05:13:50;10.20;82.20
16517;DHT22;8371;52.272;9.746;2024-02-14T05:16:20;10.20;82.30
16517;DHT22;8371;52.272;9.746;2024-02-14T05:18:46;10.20;82.50
16517;DHT22;8371;52.272;9.746;2024-02-14T05:21:13;10.20;82.60
16517;DHT22;8371;52.272;9.746;2024-02-14T05:23:39;10.20;82.40
16517;DHT22;8371;52.272;9.746;2024-02-14T05:26:05;10.20;82.50
16517;DHT22;8371;52.272;9.746;2024-02-14T05:28:31;10.20;82.60
16517;DHT22;8371;52.272;9.746;2024-02-14T05:30:57;10.20;82.50
16517;DHT22;8371;52.272;9.746;2024-02-14T05:33:23;10.30;82.60
16517;DHT22;8371;52.272;9.746;2024-02-14T05:35:49;10.30;82.60
16517;DHT22;8371;52.272;9.746;2024-02-14T05:38:15;10.30;82.70
16517;DHT22;8371;52.272;9.746;2024-02-14T05:40:42;10.30;82.70
16517;DHT22;8371;52.272;9.746;2024-02-14T05:43:10;10.30;82.70
16517;DHT22;8371;52.272;9.746;2024-02-14T05:45:35;10.30;82.90
16517;DHT22;8371;52.272;9.746;2024-02-14T05:48:01;10.30;82.90
16517;DHT22;8371;52.272;9.746;2024-02-14T05:50:27;10.30;82.90
16517;DHT22;8371;52.272;9.746;2024-02-14T05:52:53;10.30;83.00
16517;DHT22;8371;52.272;9.746;2024-02-14T05:55:19;10.30;82.90
16517;DHT22;8371;52.272;9.746;2024-02-14T05:57:45;10.30;83.00
16517;DHT22;8371;52.272;9.746;2024-02-14T06:00:11;10.30;83.00
16517;DHT22;8371;52.272;9.746;2024-02-14T06:02:38;10.30;83.00
16517;DHT22;8371;52.272;9.746;2024-02-14T06:05:07;10.40;83.10
16517;DHT22;8371;52.272;9.746;2024-02-14T06:07:37;10.40;83.10
16517;DHT22;8371;52.272;9.746;2024-02-14T06:10:02;10.40;83.10
16517;DHT22;8371;52.272;9.746;2024-02-14T06:12:28;10.40;84.00
16517;DHT22;8371;52.272;9.746;2024-02-14T06:14:55;10.40;83.30
16517;DHT22;8371;52.272;9.746;2024-02-14T06:17:21;10.40;83.20
16517;DHT22;8371;52.272;9.746;2024-02-14T06:19:46;10.40;83.20
16517;DHT22;8371;52.272;9.746;2024-02-14T06:22:12;10.40;83.30
16517;DHT22;8371;52.272;9.746;2024-02-14T06:24:38;10.40;83.30
16517;DHT22;8371;52.272;9.746;2024-02-14T06:27:04;10.40;83.50
16517;DHT22;8371;52.272;9.746;2024-02-14T06:29:30;10.40;83.30
16517;DHT22;8371;52.272;9.746;2024-02-14T06:31:55;10.40;83.40
16517;DHT22;8371;52.272;9.746;2024-02-14T06:34:21;10.50;83.60
16517;DHT22;8371;52.272;9.746;2024-02-14T06:36:47;10.40;83.50
16517;DHT22;8371;52.272;9.746;2024-02-14T06:39:13;10.50;83.60
16517;DHT22;8371;52.272;9.746;2024-02-14T06:41:38;10.50;83.70
16517;DHT22;8371;52.272;9.746;2024-02-14T06:44:06;10.50;83.70
16517;DHT22;8371;52.272;9.746;2024-02-14T06:46:31;10.50;83.70
16517;DHT22;8371;52.272;9.746;2024-02-14T06:48:57;10.50;83.80
16517;DHT22;8371;52.272;9.746;2024-02-14T06:51:23;10.50;83.80
16517;DHT22;8371;52.272;9.746;2024-02-14T06:53:50;10.50;83.80
16517;DHT22;8371;52.272;9.746;2024-02-14T06:56:16;10.50;83.80
16517;DHT22;8371;52.272;9.746;2024-02-14T06:58:41;10.50;83.90
16517;DHT22;8371;52.272;9.746;2024-02-14T07:01:07;10.50;83.90
16517;DHT22;8371;52.272;9.746;2024-02-14T07:03:35;10.50;84.00
16517;DHT22;8371;52.272;9.746;2024-02-14T07:06:01;10.50;84.10
16517;DHT22;8371;52.272;9.746;2024-02-14T07:08:26;10.60;84.20
16517;DHT22;8371;52.272;9.746;2024-02-14T07:10:54;10.60;84.30
16517;DHT22;8371;52.272;9.746;2024-02-14T07:13:21;10.60;84.30
16517;DHT22;8371;52.272;9.746;2024-02-14T07:15:47;10.60;84.40
16517;DHT22;8371;52.272;9.746;2024-02-14T07:18:12;10.60;84.40
16517;DHT22;8371;52.272;9.746;2024-02-14T07:20:38;10.60;84.40
16517;DHT22;8371;52.272;9.746;2024-02-14T07:23:04;10.70;84.50
16517;DHT22;8371;52.272;9.746;2024-02-14T07:25:30;10.70;84.50
16517;DHT22;8371;52.272;9.746;2024-02-14T07:27:56;10.70;84.60
16517;DHT22;8371;52.272;9.746;2024-02-14T07:30:22;10.70;84.60
16517;DHT22;8371;52.272;9.746;2024-02-14T07:32:48;10.70;84.70
16517;DHT22;8371;52.272;9.746;2024-02-14T07:35:15;10.80;84.70
16517;DHT22;8371;52.272;9.746;2024-02-14T07:37:42;10.80;85.00
16517;DHT22;8371;52.272;9.746;2024-02-14T07:40:08;10.80;84.90
16517;DHT22;8371;52.272;9.746;2024-02-14T07:42:34;10.80;84.80
16517;DHT22;8371;52.272;9.746;2024-02-14T07:45:00;10.80;85.00
16517;DHT22;8371;52.272;9.746;2024-02-14T07:47:25;10.90;85.10
16517;DHT22;8371;52.272;9.746;2024-02-14T07:49:51;10.80;84.80
16517;DHT22;8371;52.272;9.746;2024-02-14T07:52:18;10.90;85.00
16517;DHT22;8371;52.272;9.746;2024-02-14T07:54:44;10.90;84.90
16517;DHT22;8371;52.272;9.746;2024-02-14T07:57:09;11.00;85.00
16517;DHT22;8371;52.272;9.746;2024-02-14T07:59:35;11.00;85.00
16517;DHT22;8371;52.272;9.746;2024-02-14T08:02:01;11.00;84.90
16517;DHT22;8371;52.272;9.746;2024-02-14T08:04:27;11.00;84.80
16517;DHT22;8371;52.272;9.746;2024-02-14T08:06:53;11.00;84.90
16517;DHT22;8371;52.272;9.746;2024-02-14T08:09:19;11.00;84.90
16517;DHT22;8371;52.272;9.746;2024-02-14T08:11:44;11.00;85.00
16517;DHT22;8371;52.272;9.746;2024-02-14T08:14:10;11.00;85.00
16517;DHT22;8371;52.272;9.746;2024-02-14T08:16:38;11.00;85.10
16517;DHT22;8371;52.272;9.746;2024-02-14T08:19:03;11.00;85.20
16517;DHT22;8371;52.272;9.746;2024-02-14T08:21:29;11.00;85.30
16517;DHT22;8371;52.272;9.746;2024-02-14T08:23:55;11.10;85.50
16517;DHT22;8371;52.272;9.746;2024-02-14T08:26:21;11.10;85.40
16517;DHT22;8371;52.272;9.746;2024-02-14T08:28:48;11.10;85.50
16517;DHT22;8371;52.272;9.746;2024-02-14T08:31:14;11.10;85.70
16517;DHT22;8371;52.272;9.746;2024-02-14T08:33:40;11.20;85.70
16517;DHT22;8371;52.272;9.746;2024-02-14T08:36:06;11.20;85.70
16517;DHT22;8371;52.272;9.746;2024-02-14T08:38:33;11.20;85.80
16517;DHT22;8371;52.272;9.746;2024-02-14T08:41:01;11.30;85.80
16517;DHT22;8371;52.272;9.746;2024-02-14T08:43:27;11.30;85.80
16517;DHT22;8371;52.272;9.746;2024-02-14T08:45:54;11.30;85.90
16517;DHT22;8371;52.272;9.746;2024-02-14T08:48:21;11.40;86.00
16517;DHT22;8371;52.272;9.746;2024-02-14T08:50:47;11.40;86.00
16517;DHT22;8371;52.272;9.746;2024-02-14T08:53:13;11.50;86.10
16517;DHT22;8371;52.272;9.746;2024-02-14T08:55:42;11.50;86.00
16517;DHT22;8371;52.272;9.746;2024-02-14T08:58:08;11.50;86.20
16517;DHT22;8371;52.272;9.746;2024-02-14T09:00:37;11.50;86.20
16517;DHT22;8371;52.272;9.746;2024-02-14T09:03:04;11.60;86.30
16517;DHT22;8371;52.272;9.746;2024-02-14T09:05:30;11.60;86.30
16517;DHT22;8371;52.272;9.746;2024-02-14T09:07:56;11.70;86.40
16517;DHT22;8371;52.272;9.746;2024-02-14T09:10:22;11.70;86.50
16517;DHT22;8371;52.272;9.746;2024-02-14T09:12:48;11.80;86.80
16517;DHT22;8371;52.272;9.746;2024-02-14T09:15:14;11.90;86.70
16517;DHT22;8371;52.272;9.746;2024-02-14T09:17:40;11.90;86.50
16517;DHT22;8371;52.272;9.746;2024-02-14T09:20:08;12.00;86.60
16517;DHT22;8371;52.272;9.746;2024-02-14T09:22:38;12.10;86.70
16517;DHT22;8371;52.272;9.746;2024-02-14T09:25:04;12.10;86.70
16517;DHT22;8371;52.272;9.746;2024-02-14T09:27:31;12.20;86.80
16517;DHT22;8371;52.272;9.746;2024-02-14T09:29:58;12.20;86.80
16517;DHT22;8371;52.272;9.746;2024-02-14T09:32:25;12.30;86.90
16517;DHT22;8371;52.272;9.746;2024-02-14T09:34:50;12.40;86.70
16517;DHT22;8371;52.272;9.746;2024-02-14T09:37:16;12.50;86.80
16517;DHT22;8371;52.272;9.746;2024-02-14T09:39:42;12.50;86.70
16517;DHT22;8371;52.272;9.746;2024-02-14T09:42:13;12.60;86.60
16517;DHT22;8371;52.272;9.746;2024-02-14T09:44:40;12.60;86.60
16517;DHT22;8371;52.272;9.746;2024-02-14T09:47:07;12.70;86.50
16517;DHT22;8371;52.272;9.746;2024-02-14T09:49:35;12.70;86.60
16517;DHT22;8371;52.272;9.746;2024-02-14T09:52:03;12.80;86.50
16517;DHT22;8371;52.272;9.746;2024-02-14T09:54:31;12.90;86.60
16517;DHT22;8371;52.272;9.746;2024-02-14T09:56:59;12.90;86.60
16517;DHT22;8371;52.272;9.746;2024-02-14T09:59:25;13.00;86.80
16517;DHT22;8371;52.272;9.746;2024-02-14T10:01:51;13.10;86.70
16517;DHT22;8371;52.272;9.746;2024-02-14T10:04:37;13.10;86.60
16517;DHT22;8371;52.272;9.746;2024-02-14T10:07:04;13.20;86.50
16517;DHT22;8371;52.272;9.746;2024-02-14T10:09:30;13.30;86.50
16517;DHT22;8371;52.272;9.746;2024-02-14T10:11:57;13.30;86.30
16517;DHT22;8371;52.272;9.746;2024-02-14T10:14:24;13.40;86.10
16517;DHT22;8371;52.272;9.746;2024-02-14T10:16:49;13.50;86.10
16517;DHT22;8371;52.272;9.746;2024-02-14T10:19:16;13.50;86.00
16517;DHT22;8371;52.272;9.746;2024-02-14T10:21:42;13.60;86.00
16517;DHT22;8371;52.272;9.746;2024-02-14T10:24:08;13.60;86.00
16517;DHT22;8371;52.272;9.746;2024-02-14T10:26:37;13.60;86.00
16517;DHT22;8371;52.272;9.746;2024-02-14T10:29:03;13.70;86.20
16517;DHT22;8371;52.272;9.746;2024-02-14T10:31:28;13.70;86.00
16517;DHT22;8371;52.272;9.746;2024-02-14T10:33:55;13.80;86.00
16517;DHT22;8371;52.272;9.746;2024-02-14T10:36:22;13.80;86.00
16517;DHT22;8371;52.272;9.746;2024-02-14T10:38:50;13.80;85.80
16517;DHT22;8371;52.272;9.746;2024-02-14T10:41:16;13.90;85.90
16517;DHT22;8371;52.272;9.746;2024-02-14T10:43:43;13.90;86.00
16517;DHT22;8371;52.272;9.746;2024-02-14T10:46:22;14.00;86.10
16517;DHT22;8371;52.272;9.746;2024-02-14T10:48:58;14.00;86.30
16517;DHT22;8371;52.272;9.746;2024-02-14T10:51:25;14.10;86.60
16517;DHT22;8371;52.272;9.746;2024-02-14T10:53:51;14.20;86.70
16517;DHT22;8371;52.272;9.746;2024-02-14T10:56:18;14.30;86.70
16517;DHT22;8371;52.272;9.746;2024-02-14T10:58:47;14.40;86.40
16517;DHT22;8371;52.272;9.746;2024-02-14T11:01:15;14.50;86.20
16517;DHT22;8371;52.272;9.746;2024-02-14T11:03:44;14.60;86.10
16517;DHT22;8371;52.272;9.746;2024-02-14T11:06:15;14.60;85.90
16517;DHT22;8371;52.272;9.746;2024-02-14T11:08:40;14.70;85.80
16517;DHT22;8371;52.272;9.746;2024-02-14T11:11:06;14.80;85.70
16517;DHT22;8371;52.272;9.746;2024-02-14T11:13:32;14.80;85.40
16517;DHT22;8371;52.272;9.746;2024-02-14T11:16:02;14.90;85.30
16517;DHT22;8371;52.272;9.746;2024-02-14T11:18:30;14.90;85.20
16517;DHT22;8371;52.272;9.746;2024-02-14T11:20:56;14.90;85.90
16517;DHT22;8371;52.272;9.746;2024-02-14T11:23:24;15.00;85.20
16517;DHT22;8371;52.272;9.746;2024-02-14T11:26:00;15.00;85.00
16517;DHT22;8371;52.272;9.746;2024-02-14T11:28:28;15.10;84.90
16517;DHT22;8371;52.272;9.746;2024-02-14T11:31:02;15.10;84.70
16517;DHT22;8371;52.272;9.746;2024-02-14T11:33:29;15.10;84.70
16517;DHT22;8371;52.272;9.746;2024-02-14T11:35:55;15.20;85.40
16517;DHT22;8371;52.272;9.746;2024-02-14T11:38:26;15.10;84.50
16517;DHT22;8371;52.272;9.746;2024-02-14T11:40:53;15.10;84.50
16517;DHT22;8371;52.272;9.746;2024-02-14T11:43:20;15.10;84.50
16517;DHT22;8371;52.272;9.746;2024-02-14T11:45:46;15.10;84.40
16517;DHT22;8371;52.272;9.746;2024-02-14T11:48:14;15.20;84.40
16517;DHT22;8371;52.272;9.746;2024-02-14T11:50:40;15.20;84.30
16517;DHT22;8371;52.272;9.746;2024-02-14T11:53:07;15.20;84.20
16517;DHT22;8371;52.272;9.746;2024-02-14T11:55:38;15.20;84.30
16517;DHT22;8371;52.272;9.746;2024-02-14T12:00:54;15.20;84.30
16517;DHT22;8371;52.272;9.746;2024-02-14T12:03:23;15.20;84.50
16517;DHT22;8371;52.272;9.746;2024-02-14T12:05:52;15.20;84.30
16517;DHT22;8371;52.272;9.746;2024-02-14T12:08:19;15.20;84.10
16517;DHT22;8371;52.272;9.746;2024-02-14T12:10:46;15.20;84.00
16517;DHT22;8371;52.272;9.746;2024-02-14T12:13:15;15.10;83.80
16517;DHT22;8371;52.272;9.746;2024-02-14T12:15:45;15.10;83.90
16517;DHT22;8371;52.272;9.746;2024-02-14T12:18:11;15.10;83.80
16517;DHT22;8371;52.272;9.746;2024-02-14T12:20:38;15.00;83.80
16517;DHT22;8371;52.272;9.746;2024-02-14T12:23:04;15.00;83.80
16517;DHT22;8371;52.272;9.746;2024-02-14T12:25:33;14.90;83.90
16517;DHT22;8371;52.272;9.746;2024-02-14T12:28:00;14.90;84.00
16517;DHT22;8371;52.272;9.746;2024-02-14T12:30:43;14.80;84.20
16517;DHT22;8371;52.272;9.746;2024-02-14T12:33:11;14.80;84.10
16517;DHT22;8371;52.272;9.746;2024-02-14T12:35:41;14.80;84.20
16517;DHT22;8371;52.272;9.746;2024-02-14T12:38:08;14.70;84.10
16517;DHT22;8371;52.272;9.746;2024-02-14T12:40:35;14.70;84.10
16517;DHT22;8371;52.272;9.746;2024-02-14T12:43:01;14.70;84.20
16517;DHT22;8371;52.272;9.746;2024-02-14T12:45:27;14.60;84.40
16517;DHT22;8371;52.272;9.746;2024-02-14T12:47:53;14.60;84.40
16517;DHT22;8371;52.272;9.746;2024-02-14T12:50:19;14.60;84.50
16517;DHT22;8371;52.272;9.746;2024-02-14T12:52:47;14.60;84.50
16517;DHT22;8371;52.272;9.746;2024-02-14T12:55:14;14.60;84.40
16517;DHT22;8371;52.272;9.746;2024-02-14T12:57:40;14.60;84.50
16517;DHT22;8371;52.272;9.746;2024-02-14T13:00:07;14.60;84.70
16517;DHT22;8371;52.272;9.746;2024-02-14T13:02:35;14.60;84.60
16517;DHT22;8371;52.272;9.746;2024-02-14T13:05:01;14.60;84.60
16517;DHT22;8371;52.272;9.746;2024-02-14T13:07:31;14.50;84.60
16517;DHT22;8371;52.272;9.746;2024-02-14T13:09:56;14.60;84.80
16517;DHT22;8371;52.272;9.746;2024-02-14T13:12:22;14.60;84.90
16517;DHT22;8371;52.272;9.746;2024-02-14T13:14:48;14.60;85.00
16517;DHT22;8371;52.272;9.746;2024-02-14T13:17:14;14.60;85.90
16517;DHT22;8371;52.272;9.746;2024-02-14T13:19:39;14.60;85.00
16517;DHT22;8371;52.272;9.746;2024-02-14T13:22:05;14.60;85.00
16517;DHT22;8371;52.272;9.746;2024-02-14T13:24:31;14.60;84.90
16517;DHT22;8371;52.272;9.746;2024-02-14T13:26:57;14.60;85.70
16517;DHT22;8371;52.272;9.746;2024-02-14T13:29:23;14.60;84.80
16517;DHT22;8371;52.272;9.746;2024-02-14T13:31:50;14.60;85.00
16517;DHT22;8371;52.272;9.746;2024-02-14T13:34:17;14.60;84.80
16517;DHT22;8371;52.272;9.746;2024-02-14T13:36:44;14.60;84.90
16517;DHT22;8371;52.272;9.746;2024-02-14T13:39:10;14.60;85.00
16517;DHT22;8371;52.272;9.746;2024-02-14T13:41:38;14.60;85.10
16517;DHT22;8371;52.272;9.746;2024-02-14T13:44:06;14.60;85.20
16517;DHT22;8371;52.272;9.746;2024-02-14T13:46:32;14.70;85.40
16517;DHT22;8371;52.272;9.746;2024-02-14T13:48:58;14.60;85.30
16517;DHT22;8371;52.272;9.746;2024-02-14T13:51:35;14.60;85.30
16517;DHT22;8371;52.272;9.746;2024-02-14T13:54:24;14.70;85.30
16517;DHT22;8371;52.272;9.746;2024-02-14T13:56:51;14.70;85.20
16517;DHT22;8371;52.272;9.746;2024-02-14T13:59:37;14.70;85.10
16517;DHT22;8371;52.272;9.746;2024-02-14T14:02:03;14.60;85.00
16517;DHT22;8371;52.272;9.746;2024-02-14T14:04:29;14.60;85.00
16517;DHT22;8371;52.272;9.746;2024-02-14T14:06:54;14.60;84.80
16517;DHT22;8371;52.272;9.746;2024-02-14T14:09:20;14.60;84.80
16517;DHT22;8371;52.272;9.746;2024-02-14T14:11:46;14.60;84.80
16517;DHT22;8371;52.272;9.746;2024-02-14T14:14:14;14.60;84.80
16517;DHT22;8371;52.272;9.746;2024-02-14T14:16:53;14.60;84.90
16517;DHT22;8371;52.272;9.746;2024-02-14T14:19:23;14.50;85.00
16517;DHT22;8371;52.272;9.746;2024-02-14T14:21:48;14.40;84.90
16517;DHT22;8371;52.272;9.746;2024-02-14T14:24:14;14.40;85.00
16517;DHT22;8371;52.272;9.746;2024-02-14T14:26:41;14.40;85.00
16517;DHT22;8371;52.272;9.746;2024-02-14T14:29:06;14.40;85.10
16517;DHT22;8371;52.272;9.746;2024-02-14T14:31:34;14.30;85.20
16517;DHT22;8371;52.272;9.746;2024-02-14T14:34:01;14.30;85.20
16517;DHT22;8371;52.272;9.746;2024-02-14T14:36:27;14.30;85.20
16517;DHT22;8371;52.272;9.746;2024-02-14T14:38:52;14.20;85.20
16517;DHT22;8371;52.272;9.746;2024-02-14T14:41:20;14.20;85.40
16517;DHT22;8371;52.272;9.746;2024-02-14T14:43:46;14.20;85.40
16517;DHT22;8371;52.272;9.746;2024-02-14T14:46:14;14.20;85.40
16517;DHT22;8371;52.272;9.746;2024-02-14T14:48:39;14.20;85.40
16517;DHT22;8371;52.272;9.746;2024-02-14T14:51:05;14.10;85.40
16517;DHT22;8371;52.272;9.746;2024-02-14T14:53:31;14.10;85.40
16517;DHT22;8371;52.272;9.746;2024-02-14T14:55:57;14.10;85.50
16517;DHT22;8371;52.272;9.746;2024-02-14T14:58:23;14.10;85.50
16517;DHT22;8371;52.272;9.746;2024-02-14T15:01:00;14.00;85.50
16517;DHT22;8371;52.272;9.746;2024-02-14T15:03:28;14.00;85.50
16517;DHT22;8371;52.272;9.746;2024-02-14T15:05:53;14.00;85.60
16517;DHT22;8371;52.272;9.746;2024-02-14T15:08:19;14.00;85.60
16517;DHT22;8371;52.272;9.746;2024-02-14T15:10:47;13.90;85.60
16517;DHT22;8371;52.272;9.746;2024-02-14T15:13:13;13.90;85.70
16517;DHT22;8371;52.272;9.746;2024-02-14T15:15:39;13.90;85.70
16517;DHT22;8371;52.272;9.746;2024-02-14T15:18:05;13.80;85.70
16517;DHT22;8371;52.272;9.746;2024-02-14T15:20:33;13.80;85.80
16517;DHT22;8371;52.272;9.746;2024-02-14T15:23:01;13.80;85.90
16517;DHT22;8371;52.272;9.746;2024-02-14T15:25:28;13.80;86.00
16517;DHT22;8371;52.272;9.746;2024-02-14T15:27:54;13.80;86.00
16517;DHT22;8371;52.272;9.746;2024-02-14T15:30:22;13.80;86.00
16517;DHT22;8371;52.272;9.746;2024-02-14T15:33:06;13.80;86.10
16517;DHT22;8371;52.272;9.746;2024-02-14T15:35:52;13.80;86.20
16517;DHT22;8371;52.272;9.746;2024-02-14T15:38:20;13.70;86.20
16517;DHT22;8371;52.272;9.746;2024-02-14T15:40:47;13.70;86.20
16517;DHT22;8371;52.272;9.746;2024-02-14T15:43:13;13.70;86.30
16517;DHT22;8371;52.272;9.746;2024-02-14T15:45:40;13.70;86.40
16517;DHT22;8371;52.272;9.746;2024-02-14T15:48:06;13.70;86.40
16517;DHT22;8371;52.272;9.746;2024-02-14T15:50:33;13.70;86.50